Time;durP1;ratioP1;P1;durP2;ratioP2;P2;SDS_P1;SDS_P2;PMS_P1;PMS_P2;Temp;Humidity;BMP_temperature;BMP_pressure;BME280_temperature;BME280_humidity;BME280_pressure;Samples;Min_cycle;Max_cycle;Signal;HPM_P1;HPM_P2
2021/03/16 00:00:38;;;;;;;;;33.70;28.40;;;;;8.11;57.66;99726.86;468952;116;385918;-71
2021/03/16 00:02:00;;;;;;;;;39.50;31.60;;;;;8.02;57.91;99728.44;468631;116;391680;-71
2021/03/16 00:03:04;;;;;;;;;23.80;20.80;;;;;8.02;57.91;99728.44;460622;118;383214;-71
2021/03/16 00:04:10;;;;;;;;;38.40;29.60;;;;;7.93;58.13;99724.72;462378;118;387473;-71
2021/03/16 00:05:21;;;;;;;;;28.20;25.10;;;;;7.91;58.73;99731.10;470231;116;385403;-73
2021/03/16 00:06:25;;;;;;;;;29.30;22.40;;;;;7.91;58.73;99731.10;468902;116;391456;-71
2021/03/16 00:07:29;;;;;;;;;21.60;18.50;;;;;7.82;59.01;99727.34;468807;116;382797;-71
2021/03/16 00:08:33;;;;;;;;;19.90;17.70;;;;;7.83;58.81;99728.19;469337;116;380733;-71
2021/03/16 00:09:37;;;;;;;;;26.10;22.40;;;;;7.81;58.53;99728.33;469257;116;382950;-72
2021/03/16 00:10:43;;;;;;;;;12.80;8.50;;;;;7.80;58.85;99725.78;468661;116;376536;-71
2021/03/16 00:11:47;;;;;;;;;23.20;19.70;;;;;7.80;58.85;99725.78;469305;116;383288;-72
2021/03/16 00:12:51;;;;;;;;;22.40;19.30;;;;;7.79;58.59;99722.29;460576;118;389513;-72
2021/03/16 00:13:55;;;;;;;;;24.60;20.40;;;;;7.79;58.98;99729.39;462836;118;382983;-70
2021/03/16 00:14:58;;;;;;;;;24.40;22.30;;;;;7.74;59.21;99723.62;469228;116;389411;-71
2021/03/16 00:16:02;;;;;;;;;34.60;28.30;;;;;7.74;59.21;99723.62;469206;116;385762;-70
2021/03/16 00:17:06;;;;;;;;;28.90;24.60;;;;;7.77;59.00;99726.03;468773;116;383570;-69
2021/03/16 00:18:14;;;;;;;;;32.50;30.00;;;;;7.68;58.96;99724.95;469380;116;385058;-68
2021/03/16 00:19:18;;;;;;;;;24.90;21.10;;;;;7.68;59.02;99717.00;469637;116;382425;-69
2021/03/16 00:20:23;;;;;;;;;38.60;31.90;;;;;7.59;59.33;99711.58;469722;116;384969;-70
2021/03/16 00:21:27;;;;;;;;;49.00;34.30;;;;;7.59;59.29;99715.08;470000;116;388426;-70
2021/03/16 00:22:31;;;;;;;;;32.90;27.40;;;;;7.61;59.30;99707.84;469981;116;385241;-71
2021/03/16 00:23:35;;;;;;;;;27.70;23.20;;;;;7.63;59.49;99715.66;470046;116;383927;-70
2021/03/16 00:24:39;;;;;;;;;25.10;22.60;;;;;7.63;59.49;99715.66;470137;116;383899;-69
2021/03/16 00:25:43;;;;;;;;;23.20;17.60;;;;;7.65;59.00;99713.75;469873;116;383449;-70
2021/03/16 00:26:48;;;;;;;;;27.40;20.80;;;;;7.65;59.00;99713.75;469809;116;384268;-70
2021/03/16 00:27:52;;;;;;;;;22.40;19.10;;;;;7.65;59.15;99711.10;471986;115;388073;-70
2021/03/16 00:28:56;;;;;;;;;22.70;19.40;;;;;7.66;58.81;99710.15;471211;115;389534;-70
2021/03/16 00:29:59;;;;;;;;;22.60;18.80;;;;;7.63;59.17;99700.62;470154;116;383385;-70
2021/03/16 00:31:03;;;;;;;;;20.70;17.80;;;;;7.59;59.33;99698.35;465001;117;381558;-69
2021/03/16 00:32:08;;;;;;;;;25.60;20.30;;;;;7.60;58.94;99702.66;465143;117;383375;-69
2021/03/16 00:33:13;;;;;;;;;25.10;20.50;;;;;7.60;58.94;99702.66;471881;115;384327;-70
2021/03/16 00:34:17;;;;;;;;;23.10;17.30;;;;;7.53;59.31;99698.83;471654;115;391281;-69
2021/03/16 00:35:21;;;;;;;;;17.70;16.10;;;;;7.54;59.51;99697.84;470218;116;380882;-67
2021/03/16 00:36:26;;;;;;;;;20.30;15.70;;;;;7.52;59.39;99705.92;471391;115;387389;-69
2021/03/16 00:37:30;;;;;;;;;21.70;17.00;;;;;7.51;59.37;99698.08;472028;115;383484;-70
2021/03/16 00:38:34;;;;;;;;;18.70;15.50;;;;;7.51;59.37;99698.08;470160;116;381339;-70
2021/03/16 00:39:38;;;;;;;;;19.80;17.30;;;;;7.51;59.45;99703.37;472004;115;384408;-74
2021/03/16 00:40:42;;;;;;;;;14.10;13.10;;;;;7.51;59.00;99703.37;469952;116;378979;-71
2021/03/16 00:41:46;;;;;;;;;15.70;12.50;;;;;7.49;59.35;99700.02;470204;116;378856;-72
2021/03/16 00:42:50;;;;;;;;;16.20;14.20;;;;;7.46;59.05;99703.75;470164;116;380373;-72
2021/03/16 00:43:54;;;;;;;;;21.00;17.80;;;;;7.46;59.05;99703.75;470057;116;382682;-72
2021/03/16 00:44:58;;;;;;;;;29.70;21.50;;;;;7.45;59.46;99702.05;472024;115;383292;-71
2021/03/16 00:46:03;;;;;;;;;21.60;21.40;;;;;7.42;59.56;99697.00;469835;116;382196;-70
2021/03/16 00:47:07;;;;;;;;;21.00;18.60;;;;;7.34;59.90;99699.38;469988;116;381649;-71
2021/03/16 00:48:15;;;;;;;;;19.90;14.80;;;;;7.34;59.90;99699.38;470203;116;381646;-71
2021/03/16 00:49:19;;;;;;;;;23.80;19.90;;;;;7.38;59.61;99696.39;471753;115;380610;-72
2021/03/16 00:50:25;;;;;;;;;23.40;17.30;;;;;7.41;59.52;99695.30;469652;116;382470;-71
2021/03/16 00:51:29;;;;;;;;;21.60;18.00;;;;;7.38;59.89;99700.83;470107;116;382170;-74
2021/03/16 00:52:33;;;;;;;;;20.60;16.80;;;;;7.39;59.64;99700.73;470118;116;382803;-72
2021/03/16 00:53:37;;;;;;;;;9.40;8.40;;;;;7.21;59.93;99696.81;471969;115;373549;-72
2021/03/16 00:54:43;;;;;;;;;21.40;17.70;;;;;7.21;59.93;99696.81;469547;116;383045;-71
2021/03/16 00:55:47;;;;;;;;;18.10;17.40;;;;;7.25;60.38;99703.56;471799;115;382530;-72
2021/03/16 00:56:52;;;;;;;;;16.30;15.90;;;;;7.21;60.25;99699.46;472049;115;381819;-73
2021/03/16 00:57:56;;;;;;;;;10.70;8.50;;;;;7.21;60.25;99699.46;470348;116;375488;-70
2021/03/16 00:58:59;;;;;;;;;8.80;7.00;;;;;7.13;60.47;99707.15;472225;115;375119;-71
2021/03/16 01:00:04;;;;;;;;;17.80;15.90;;;;;7.11;60.15;99709.08;472076;115;381046;-70
2021/03/16 01:01:08;;;;;;;;;17.80;15.40;;;;;7.12;60.38;99701.95;471622;115;380945;-72
2021/03/16 01:02:12;;;;;;;;;20.70;18.00;;;;;7.12;60.38;99701.95;472005;115;384007;-70
2021/03/16 01:03:16;;;;;;;;;22.40;20.80;;;;;7.13;60.11;99706.30;470137;116;382875;-70
2021/03/16 01:04:20;;;;;;;;;22.80;18.60;;;;;7.13;60.52;99701.86;471999;115;382353;-70
2021/03/16 01:05:24;;;;;;;;;21.00;17.90;;;;;7.13;60.52;99701.86;469694;116;383224;-72
2021/03/16 01:06:29;;;;;;;;;21.20;16.50;;;;;7.13;60.06;99696.57;469584;116;380895;-69
2021/03/16 01:07:33;;;;;;;;;19.50;17.20;;;;;7.13;60.09;99691.28;472089;115;382617;-69
2021/03/16 01:08:37;;;;;;;;;19.30;17.20;;;;;7.14;60.08;99698.27;472004;115;383029;-70
2021/03/16 01:09:41;;;;;;;;;25.60;22.30;;;;;7.15;59.94;99696.44;470107;116;382624;-69
2021/03/16 01:10:45;;;;;;;;;22.50;18.80;;;;;7.15;59.94;99696.44;469878;116;382986;-71
2021/03/16 01:11:49;;;;;;;;;23.50;18.00;;;;;7.11;60.04;99698.50;470151;116;381563;-69
2021/03/16 01:12:53;;;;;;;;;31.70;27.60;;;;;7.08;59.97;99693.45;471950;115;383918;-69
2021/03/16 01:13:57;;;;;;;;;39.10;32.00;;;;;7.09;60.03;99689.82;469975;116;392571;-69
2021/03/16 01:15:01;;;;;;;;;37.30;32.70;;;;;7.02;59.96;99690.42;470002;116;384539;-70
2021/03/16 01:16:06;;;;;;;;;28.70;23.00;;;;;7.02;59.96;99690.42;469387;116;386245;-71
2021/03/16 01:17:10;;;;;;;;;28.10;21.50;;;;;7.04;60.35;99691.13;471724;115;382380;-71
2021/03/16 01:18:14;;;;;;;;;31.30;23.50;;;;;6.99;60.27;99683.53;470064;116;384980;-69
2021/03/16 01:19:18;;;;;;;;;41.00;31.20;;;;;6.95;60.17;99694.47;472012;115;385426;-69
2021/03/16 01:20:24;;;;;;;;;31.70;22.80;;;;;6.93;60.40;99684.84;471728;115;386947;-69
2021/03/16 01:21:28;;;;;;;;;37.20;29.80;;;;;6.84;61.05;99685.54;471787;115;386329;-70
2021/03/16 01:22:31;;;;;;;;;41.40;30.30;;;;;6.84;61.05;99685.54;471951;115;387076;-70
2021/03/16 01:23:36;;;;;;;;;31.90;27.00;;;;;6.90;60.81;99686.88;471987;115;383746;-71
2021/03/16 01:24:40;;;;;;;;;35.40;30.40;;;;;6.92;60.34;99679.69;471690;115;386708;-71
2021/03/16 01:25:44;;;;;;;;;37.30;31.60;;;;;6.93;60.21;99684.00;471953;115;386060;-70
2021/03/16 01:26:48;;;;;;;;;40.80;33.30;;;;;6.94;60.12;99683.05;471616;115;391945;-70
2021/03/16 01:27:54;;;;;;;;;32.50;26.50;;;;;6.97;60.47;99680.17;471953;115;386206;-70
2021/03/16 01:28:58;;;;;;;;;27.90;22.40;;;;;6.97;60.47;99680.17;471471;115;383266;-69
2021/03/16 01:30:02;;;;;;;;;38.80;34.50;;;;;6.96;60.30;99685.56;471702;115;385548;-71
2021/03/16 01:31:06;;;;;;;;;38.40;32.50;;;;;6.88;60.46;99675.58;471942;115;385487;-69
2021/03/16 01:32:10;;;;;;;;;39.40;31.60;;;;;6.86;60.43;99682.80;471926;115;386202;-70
2021/03/16 01:33:14;;;;;;;;;35.60;29.80;;;;;6.86;60.43;99682.80;471641;115;386492;-69
2021/03/16 01:34:18;;;;;;;;;33.70;26.50;;;;;6.82;60.73;99668.12;471859;115;393849;-68
2021/03/16 01:35:22;;;;;;;;;29.40;25.80;;;;;6.86;60.54;99673.04;471980;115;384083;-69
2021/03/16 01:36:28;;;;;;;;;33.80;25.90;;;;;6.86;60.54;99673.04;471380;115;386250;-70
2021/03/16 01:37:32;;;;;;;;;31.00;25.90;;;;;6.89;60.36;99675.45;471958;115;390711;-69
2021/03/16 01:38:36;;;;;;;;;33.00;25.20;;;;;6.84;60.53;99668.84;471896;115;392474;-71
2021/03/16 01:39:39;;;;;;;;;36.10;27.70;;;;;6.84;60.49;99674.13;471934;115;385856;-69
2021/03/16 01:40:44;;;;;;;;;28.00;22.10;;;;;6.84;60.59;99674.13;471760;115;383978;-69
2021/03/16 01:41:48;;;;;;;;;25.10;20.70;;;;;6.82;60.86;99674.25;471621;115;382780;-70
2021/03/16 01:42:52;;;;;;;;;7.20;5.70;;;;;6.75;60.75;99680.95;472302;115;375075;-70
2021/03/16 01:43:56;;;;;;;;;25.90;21.40;;;;;6.75;60.88;99674.81;472034;115;383740;-70
2021/03/16 01:45:00;;;;;;;;;28.20;21.90;;;;;6.76;60.67;99676.51;472037;115;383770;-70
2021/03/16 01:46:06;;;;;;;;;24.80;22.90;;;;;6.75;60.52;99666.88;472025;115;383133;-70
2021/03/16 01:47:11;;;;;;;;;27.40;21.90;;;;;6.73;60.82;99672.27;471713;115;383319;-72
2021/03/16 01:48:17;;;;;;;;;29.10;25.10;;;;;6.73;60.82;99672.27;471466;115;384709;-70
2021/03/16 01:49:21;;;;;;;;;24.40;18.70;;;;;6.76;60.73;99676.51;471439;115;383759;-72
2021/03/16 01:50:26;;;;;;;;;24.00;19.50;;;;;6.80;60.81;99672.66;471402;115;391398;-71
2021/03/16 01:51:30;;;;;;;;;21.90;19.20;;;;;6.77;60.73;99678.17;472002;115;383314;-71
2021/03/16 01:52:34;;;;;;;;;15.40;14.40;;;;;6.76;60.90;99665.94;472076;115;386168;-73
2021/03/16 01:53:38;;;;;;;;;25.60;21.90;;;;;6.70;61.29;99669.03;471995;115;390180;-74
2021/03/16 01:54:42;;;;;;;;;22.80;19.60;;;;;6.72;61.07;99670.61;472114;115;382879;-70
2021/03/16 01:55:46;;;;;;;;;24.80;20.30;;;;;6.73;60.87;99677.55;472038;115;383535;-70
2021/03/16 01:56:50;;;;;;;;;22.30;18.70;;;;;6.73;60.87;99677.55;471744;115;382001;-71
2021/03/16 01:58:12;;;;;;;;;21.60;17.40;;;;;6.74;61.05;99668.67;471512;115;382272;-71
2021/03/16 01:59:34;;;;;;;;;20.30;15.60;;;;;6.69;60.85;99667.34;471532;115;381566;-71
2021/03/16 02:00:57;;;;;;;;;23.20;18.50;;;;;6.69;60.85;99667.34;471532;115;383669;-67
2021/03/16 02:02:19;;;;;;;;;20.30;16.10;;;;;6.65;61.68;99673.80;471522;115;382784;-67
2021/03/16 02:03:41;;;;;;;;;22.00;19.20;;;;;6.65;61.68;99673.80;471444;115;383948;-69
2021/03/16 02:05:06;;;;;;;;;20.20;16.80;;;;;6.61;61.49;99678.47;471439;115;381387;-68
2021/03/16 02:06:32;;;;;;;;;27.40;23.60;;;;;6.61;61.49;99678.47;471461;115;382610;-69
2021/03/16 02:07:58;;;;;;;;;21.10;17.60;;;;;6.52;61.58;99673.87;471731;115;383039;-71
2021/03/16 02:09:24;;;;;;;;;24.00;20.30;;;;;6.52;61.58;99673.87;471482;115;382653;-71
2021/03/16 02:10:55;;;;;;;;;14.82;11.45;;;;;6.45;62.22;99672.63;471536;115;384192;-69
2021/03/16 02:12:20;;;;;;;;;22.80;20.80;;;;;6.38;62.22;99669.59;471442;115;383203;-71
2021/03/16 02:13:43;;;;;;;;;24.80;18.50;;;;;6.37;62.14;99669.72;471493;115;384082;-70
2021/03/16 02:15:08;;;;;;;;;25.60;21.00;;;;;6.38;62.23;99669.59;471704;115;391049;-70
2021/03/16 02:16:35;;;;;;;;;23.40;21.50;;;;;6.37;62.46;99673.20;471466;115;381233;-68
2021/03/16 02:17:58;;;;;;;;;29.60;23.00;;;;;6.37;62.46;99673.20;471414;115;383585;-70
2021/03/16 02:19:29;;;;;;;;;11.40;9.70;;;;;6.28;62.54;99671.23;471455;115;383731;-68
2021/03/16 02:21:04;;;;;;;;;13.20;8.00;;;;;6.35;62.71;99659.24;471308;116;375756;-69
2021/03/16 02:22:29;;;;;;;;;32.60;26.30;;;;;6.35;62.71;99659.24;471348;116;391769;-67
2021/03/16 02:24:50;;;;;;;;;24.30;19.90;;;;;6.38;62.61;99666.13;471169;116;383817;-67
2021/03/16 02:26:17;;;;;;;;;30.30;24.80;;;;;6.38;62.49;99666.95;471203;116;384268;-71
2021/03/16 02:27:53;;;;;;;;;24.50;21.20;;;;;6.34;62.64;99672.58;471200;116;381553;-69
2021/03/16 02:29:16;;;;;;;;;31.00;23.70;;;;;6.26;62.69;99670.48;471217;116;383809;-69
2021/03/16 02:30:41;;;;;;;;;30.20;24.20;;;;;6.26;62.69;99670.48;471260;116;384541;-69
2021/03/16 02:32:04;;;;;;;;;19.30;16.60;;;;;6.29;62.91;99664.13;471219;116;384063;-72
2021/03/16 02:33:27;;;;;;;;;17.60;15.50;;;;;6.30;62.82;99673.75;471150;116;385143;-70
2021/03/16 02:34:50;;;;;;;;;23.80;18.70;;;;;6.19;63.34;99666.59;471180;116;380600;-69
2021/03/16 02:36:13;;;;;;;;;33.90;26.70;;;;;6.03;63.68;99662.55;471048;116;389815;-71
2021/03/16 02:37:36;;;;;;;;;32.10;26.10;;;;;6.03;63.68;99662.55;471192;116;385927;-71
2021/03/16 02:38:58;;;;;;;;;13.40;10.60;;;;;6.14;63.57;99663.45;471317;116;378000;-72
2021/03/16 02:40:22;;;;;;;;;31.90;26.70;;;;;6.10;63.68;99666.41;471092;116;385389;-70
2021/03/16 02:41:46;;;;;;;;;29.50;24.80;;;;;6.08;63.72;99671.81;471434;116;383995;-71
2021/03/16 02:43:08;;;;;;;;;36.50;29.40;;;;;6.08;63.72;99671.81;471390;116;384999;-72
2021/03/16 02:44:30;;;;;;;;;32.90;25.50;;;;;6.07;64.19;99667.48;471151;116;384523;-70
2021/03/16 02:45:52;;;;;;;;;23.20;18.30;;;;;6.06;64.08;99662.33;471180;116;381919;-70
2021/03/16 02:47:14;;;;;;;;;26.10;21.50;;;;;6.06;64.08;99662.33;471190;116;383144;-70
2021/03/16 02:48:37;;;;;;;;;26.80;20.00;;;;;6.08;63.94;99657.77;471118;116;385282;-70
2021/03/16 02:49:59;;;;;;;;;51.10;37.40;;;;;6.08;64.16;99661.26;471299;116;386669;-68
2021/03/16 02:51:21;;;;;;;;;50.90;35.20;;;;;6.08;64.16;99661.26;471389;116;386598;-70
2021/03/16 02:52:43;;;;;;;;;26.00;22.50;;;;;6.08;64.38;99666.54;471108;116;390257;-70
2021/03/16 02:54:06;;;;;;;;;27.40;23.30;;;;;6.08;64.43;99661.26;471143;116;383556;-71
2021/03/16 02:55:28;;;;;;;;;30.70;27.70;;;;;6.02;64.44;99651.14;471077;116;384780;-71
2021/03/16 02:56:52;;;;;;;;;23.80;16.40;;;;;6.00;64.44;99660.13;471145;116;382083;-69
2021/03/16 02:58:14;;;;;;;;;18.40;11.30;;;;;5.91;64.96;99658.97;471286;116;383642;-68
2021/03/16 02:59:36;;;;;;;;;18.50;17.40;;;;;5.91;64.96;99658.97;471147;116;383717;-68
2021/03/16 03:00:59;;;;;;;;;25.10;20.60;;;;;5.96;65.01;99653.38;471196;116;383112;-68
2021/03/16 03:02:21;;;;;;;;;44.10;32.50;;;;;5.96;64.81;99651.59;471387;116;392454;-66
2021/03/16 03:03:43;;;;;;;;;36.70;26.40;;;;;5.95;64.75;99652.53;471087;116;392175;-70
2021/03/16 03:05:08;;;;;;;;;37.60;29.20;;;;;5.95;64.75;99652.53;471435;116;385264;-69
2021/03/16 03:06:31;;;;;;;;;44.40;36.00;;;;;5.91;65.04;99653.69;471101;116;385597;-69
2021/03/16 03:07:53;;;;;;;;;28.30;24.40;;;;;5.97;64.93;99658.53;471139;116;384005;-70
2021/03/16 03:09:15;;;;;;;;;46.70;29.30;;;;;5.92;65.34;99668.59;471350;116;388757;-70
2021/03/16 03:10:38;;;;;;;;;25.30;23.40;;;;;5.90;65.15;99686.34;471195;116;390714;-69
2021/03/16 03:12:01;;;;;;;;;41.00;29.70;;;;;5.90;65.39;99699.53;471356;116;386173;-69
2021/03/16 03:13:23;;;;;;;;;55.30;42.20;;;;;5.90;65.39;99699.53;471050;116;386199;-70
2021/03/16 03:14:46;;;;;;;;;55.30;40.70;;;;;5.85;65.47;99699.84;471128;116;385734;-70
2021/03/16 03:16:09;;;;;;;;;69.70;51.70;;;;;5.90;65.68;99686.34;464319;117;386607;-69
2021/03/16 03:17:31;;;;;;;;;70.70;49.20;;;;;5.78;66.16;99679.23;468644;116;388593;-70
2021/03/16 03:18:53;;;;;;;;;68.10;50.30;;;;;5.78;66.16;99679.23;470751;116;387132;-70
2021/03/16 03:20:17;;;;;;;;;68.40;51.10;;;;;5.80;66.24;99695.81;469595;116;385898;-69
2021/03/16 03:21:41;;;;;;;;;62.60;47.20;;;;;5.80;66.24;99695.81;468660;116;386316;-68
2021/03/16 03:23:05;;;;;;;;;61.30;47.20;;;;;5.83;66.10;99680.61;468890;116;386338;-69
2021/03/16 03:24:30;;;;;;;;;69.80;52.90;;;;;5.78;66.50;99698.55;468826;116;393812;-67
2021/03/16 03:25:54;;;;;;;;;56.00;46.00;;;;;5.80;66.18;99680.83;468896;116;386430;-67
2021/03/16 03:27:20;;;;;;;;;51.40;43.10;;;;;5.80;66.18;99680.83;468567;116;393242;-68
2021/03/16 03:28:42;;;;;;;;;65.80;50.60;;;;;5.74;66.75;99710.25;468874;116;388071;-69
2021/03/16 03:30:08;;;;;;;;;67.50;50.60;;;;;5.75;67.22;99695.27;468871;116;386111;-68
2021/03/16 03:31:31;;;;;;;;;62.80;50.60;;;;;5.75;67.22;99695.27;468973;116;385453;-67
2021/03/16 03:32:53;;;;;;;;;62.90;50.60;;;;;5.67;67.16;99671.23;468901;116;391995;-68
2021/03/16 03:34:15;;;;;;;;;68.80;51.70;;;;;5.65;66.98;99710.90;468944;116;387642;-71
2021/03/16 03:35:37;;;;;;;;;59.00;44.40;;;;;5.65;67.34;99692.44;468616;116;387557;-72
2021/03/16 03:36:59;;;;;;;;;81.60;59.80;;;;;5.69;66.80;99675.45;468622;116;389635;-73
2021/03/16 03:38:22;;;;;;;;;86.00;65.00;;;;;5.69;66.80;99675.45;468782;116;388057;-73
2021/03/16 03:39:44;;;;;;;;;99.60;71.00;;;;;5.65;67.10;99676.61;468839;116;391031;-73
2021/03/16 03:41:06;;;;;;;;;100.20;67.80;;;;;5.69;66.65;99701.83;468828;116;391112;-71
2021/03/16 03:42:28;;;;;;;;;91.60;66.50;;;;;5.69;66.65;99701.83;468374;116;391459;-70
2021/03/16 03:43:51;;;;;;;;;98.40;74.00;;;;;5.60;67.24;99689.28;468799;116;391098;-71
2021/03/16 03:45:14;;;;;;;;;96.20;70.60;;;;;5.60;67.24;99689.28;468376;116;390551;-72
2021/03/16 03:46:37;;;;;;;;;93.90;67.50;;;;;5.61;67.46;99711.23;468373;116;389766;-70
2021/03/16 03:48:01;;;;;;;;;93.40;65.30;;;;;5.61;67.46;99711.23;468406;116;388786;-72
2021/03/16 03:49:23;;;;;;;;;93.30;67.30;;;;;5.58;67.41;99687.72;468806;116;389669;-72
2021/03/16 03:50:48;;;;;;;;;81.70;64.40;;;;;5.55;67.65;99703.75;468597;116;394370;-70
2021/03/16 03:52:12;;;;;;;;;96.40;65.70;;;;;5.59;67.52;99707.84;468562;116;396162;-71
2021/03/16 03:53:34;;;;;;;;;77.40;52.90;;;;;5.59;67.74;99671.77;468718;116;395505;-69
2021/03/16 03:54:57;;;;;;;;;86.70;62.90;;;;;5.59;67.74;99671.77;468580;116;395393;-71
2021/03/16 03:56:19;;;;;;;;;87.60;64.00;;;;;5.55;67.89;99693.20;468796;116;389731;-73
2021/03/16 03:57:42;;;;;;;;;79.30;58.00;;;;;5.57;67.69;99672.83;468855;116;388163;-71
2021/03/16 03:59:05;;;;;;;;;82.20;59.30;;;;;5.52;67.85;99686.32;468854;116;389561;-75
2021/03/16 04:00:29;;;;;;;;;84.90;60.50;;;;;5.52;67.85;99686.32;468649;116;394998;-75
2021/03/16 04:01:51;;;;;;;;;83.30;59.10;;;;;5.53;67.84;99700.36;468563;116;390158;-73
2021/03/16 04:03:14;;;;;;;;;81.90;58.30;;;;;5.56;67.82;99698.36;468580;116;389913;-74
2021/03/16 04:04:38;;;;;;;;;63.30;47.20;;;;;5.57;67.95;99675.47;468910;116;387816;-75
2021/03/16 04:06:00;;;;;;;;;67.80;49.50;;;;;5.57;67.95;99675.47;468858;116;386515;-75
2021/03/16 04:07:22;;;;;;;;;35.70;27.80;;;;;5.59;67.77;99665.64;468890;116;384871;-73
2021/03/16 04:08:44;;;;;;;;;52.10;39.60;;;;;5.44;68.17;99686.02;468589;116;388172;-74
2021/03/16 04:10:09;;;;;;;;;50.00;39.40;;;;;5.50;67.64;99690.02;468622;116;387304;-73
2021/03/16 04:11:31;;;;;;;;;36.70;30.20;;;;;5.50;67.64;99690.02;468623;116;389943;-75
2021/03/16 04:12:53;;;;;;;;;33.70;27.70;;;;;5.48;67.88;99692.78;469003;116;384687;-75
2021/03/16 04:14:15;;;;;;;;;31.60;24.60;;;;;5.46;67.71;99717.55;469229;116;385385;-74
2021/03/16 04:15:37;;;;;;;;;27.20;21.30;;;;;5.46;67.71;99717.55;469258;116;383188;-74
2021/03/16 04:17:00;;;;;;;;;28.30;21.30;;;;;5.46;68.01;99689.38;469492;116;384167;-76
2021/03/16 04:18:22;;;;;;;;;33.70;28.20;;;;;5.46;68.01;99689.38;468694;116;384525;-72
2021/03/16 04:19:44;;;;;;;;;33.20;29.50;;;;;5.43;67.89;99715.97;469087;116;384893;-72
2021/03/16 04:21:07;;;;;;;;;33.50;26.30;;;;;5.43;67.89;99715.97;466526;116;388684;-72
2021/03/16 04:22:29;;;;;;;;;49.70;38.70;;;;;5.37;68.50;99711.11;466618;117;386663;-73
2021/03/16 04:23:51;;;;;;;;;58.80;45.70;;;;;5.37;68.50;99711.11;466667;117;386006;-74
2021/03/16 04:25:15;;;;;;;;;53.40;41.70;;;;;5.38;68.42;99715.45;466378;117;386279;-73
2021/03/16 04:26:38;;;;;;;;;62.70;45.20;;;;;5.35;68.58;99705.11;466594;117;386597;-74
2021/03/16 04:28:00;;;;;;;;;50.60;39.80;;;;;5.35;68.58;99705.11;466528;117;382856;-74
2021/03/16 04:29:22;;;;;;;;;61.00;45.50;;;;;5.35;68.68;99726.20;466622;117;386734;-74
2021/03/16 04:30:45;;;;;;;;;81.80;56.80;;;;;5.21;69.05;99715.73;466549;117;389814;-77
2021/03/16 04:32:08;;;;;;;;;85.00;60.20;;;;;5.23;69.91;99725.22;469701;114;390670;-76
2021/03/16 04:33:30;;;;;;;;;85.20;61.70;;;;;5.21;69.62;99707.83;471994;115;390054;-73
2021/03/16 04:34:52;;;;;;;;;84.60;59.00;;;;;5.17;69.94;99706.38;474053;115;391025;-72
2021/03/16 04:36:15;;;;;;;;;81.40;57.70;;;;;5.20;69.76;99722.80;473124;115;388179;-72
2021/03/16 04:37:39;;;;;;;;;67.70;50.20;;;;;5.22;69.37;99726.20;475399;114;387748;-71
2021/03/16 04:39:02;;;;;;;;;67.70;49.80;;;;;5.27;69.26;99718.80;473916;115;385798;-72
2021/03/16 04:40:24;;;;;;;;;56.80;40.90;;;;;5.23;69.63;99711.23;474197;115;386535;-72
2021/03/16 04:41:46;;;;;;;;;43.80;37.50;;;;;5.23;69.41;99716.50;474068;115;392329;-74
2021/03/16 04:43:09;;;;;;;;;57.60;42.20;;;;;5.23;69.57;99719.95;474110;115;386743;-72
2021/03/16 04:44:31;;;;;;;;;60.20;45.00;;;;;5.23;69.57;99719.95;473889;115;385810;-74
2021/03/16 04:45:54;;;;;;;;;45.20;34.40;;;;;5.17;69.62;99704.55;474113;115;386372;-72
2021/03/16 04:47:16;;;;;;;;;40.00;29.70;;;;;5.17;69.81;99712.46;474192;115;384346;-71
2021/03/16 04:48:38;;;;;;;;;57.80;42.40;;;;;5.17;69.81;99712.46;474088;115;386055;-71
2021/03/16 04:50:02;;;;;;;;;61.30;46.90;;;;;5.21;69.80;99723.65;474051;115;386517;-69
2021/03/16 04:51:24;;;;;;;;;69.90;53.10;;;;;5.21;69.80;99723.65;474134;115;387257;-72
2021/03/16 04:52:46;;;;;;;;;77.20;59.00;;;;;5.18;70.42;99708.04;474087;115;387035;-70
2021/03/16 04:54:08;;;;;;;;;77.20;57.60;;;;;5.18;70.42;99708.04;474082;115;388096;-72
2021/03/16 04:55:34;;;;;;;;;81.90;60.30;;;;;5.19;70.04;99720.28;474104;115;389547;-70
2021/03/16 04:56:55;;;;;;;;;71.30;51.90;;;;;5.22;69.72;99718.28;473727;115;397166;-70
2021/03/16 04:58:17;;;;;;;;;65.80;50.00;;;;;5.22;69.72;99718.28;474101;115;386517;-71
2021/03/16 04:59:40;;;;;;;;;71.30;50.90;;;;;5.20;69.82;99729.89;473827;115;391557;-77
2021/03/16 05:01:02;;;;;;;;;52.60;40.90;;;;;5.21;69.86;99734.19;473858;115;387850;-66
2021/03/16 05:02:24;;;;;;;;;45.40;32.20;;;;;5.21;69.86;99734.19;473923;115;385642;-69
2021/03/16 05:03:46;;;;;;;;;63.70;50.90;;;;;5.09;70.16;99720.05;474128;115;386194;-71
2021/03/16 05:05:11;;;;;;;;;44.10;36.20;;;;;5.09;70.16;99720.05;473870;115;386334;-68
2021/03/16 05:06:33;;;;;;;;;57.80;43.80;;;;;5.08;70.66;99720.99;474056;115;385750;-70
2021/03/16 05:07:55;;;;;;;;;55.10;42.40;;;;;5.18;70.25;99711.52;473745;115;394812;-71
2021/03/16 05:09:18;;;;;;;;;56.50;40.20;;;;;5.15;69.99;99708.25;473903;115;385801;-71
2021/03/16 05:10:40;;;;;;;;;54.70;41.70;;;;;5.15;69.99;99708.25;473874;115;386019;-68
2021/03/16 05:12:02;;;;;;;;;49.80;37.60;;;;;5.14;70.51;99710.03;465239;117;387905;-70
2021/03/16 05:13:24;;;;;;;;;51.00;38.50;;;;;5.13;70.85;99715.42;472624;114;394781;-70
2021/03/16 05:14:47;;;;;;;;;56.10;41.40;;;;;5.14;70.70;99714.45;473843;115;387117;-70
2021/03/16 05:16:09;;;;;;;;;52.40;41.30;;;;;5.14;70.70;99714.45;473902;115;390966;-68
2021/03/16 05:17:31;;;;;;;;;41.80;30.90;;;;;5.17;70.49;99715.09;474118;115;386507;-70
2021/03/16 05:18:54;;;;;;;;;33.30;26.20;;;;;5.19;70.73;99715.86;473863;115;385622;-69
2021/03/16 05:20:16;;;;;;;;;44.50;36.70;;;;;5.14;71.54;99698.64;474032;115;392753;-71
2021/03/16 05:21:38;;;;;;;;;59.00;42.20;;;;;5.18;71.30;99700.13;477798;114;387194;-72
2021/03/16 05:23:01;;;;;;;;;57.70;41.20;;;;;5.13;71.56;99700.46;478329;113;386545;-73
2021/03/16 05:24:23;;;;;;;;;43.00;36.00;;;;;5.13;71.56;99700.46;475044;114;386005;-72
2021/03/16 05:25:45;;;;;;;;;42.00;29.80;;;;;5.16;71.05;99704.67;475319;114;386003;-68
2021/03/16 05:27:08;;;;;;;;;32.10;27.40;;;;;5.16;71.05;99704.67;475615;114;384533;-70
2021/03/16 05:28:30;;;;;;;;;26.10;21.80;;;;;5.17;71.12;99707.19;477781;114;389990;-68
2021/03/16 05:29:53;;;;;;;;;35.30;24.70;;;;;5.24;70.88;99711.11;474110;114;385388;-67
2021/03/16 05:31:15;;;;;;;;;27.90;21.20;;;;;5.19;70.57;99712.37;477761;114;385065;-68
2021/03/16 05:32:38;;;;;;;;;24.30;19.70;;;;;5.23;70.30;99716.50;477395;114;383641;-69
2021/03/16 05:34:00;;;;;;;;;30.90;26.20;;;;;5.24;70.79;99713.74;472575;114;382996;-71
2021/03/16 05:35:23;;;;;;;;;26.60;23.80;;;;;5.24;70.79;99713.74;469488;116;383342;-69
2021/03/16 05:36:45;;;;;;;;;32.80;29.20;;;;;5.18;70.94;99718.59;469748;116;384856;-69
2021/03/16 05:38:08;;;;;;;;;14.50;11.40;;;;;5.18;70.94;99718.59;469646;116;377932;-69
2021/03/16 05:39:30;;;;;;;;;28.10;21.70;;;;;5.19;71.33;99713.22;469472;116;383982;-71
2021/03/16 05:40:52;;;;;;;;;23.40;18.30;;;;;5.25;71.15;99717.23;469906;116;381283;-72
2021/03/16 05:42:17;;;;;;;;;24.80;20.80;;;;;5.22;71.45;99705.11;469762;116;383879;-68
2021/03/16 05:43:40;;;;;;;;;21.40;17.60;;;;;5.26;71.41;99714.47;469555;116;382487;-69
2021/03/16 05:45:02;;;;;;;;;27.60;22.20;;;;;5.20;71.00;99700.89;469505;116;382905;-68
2021/03/16 05:46:26;;;;;;;;;22.40;22.40;;;;;5.24;71.16;99707.62;469026;116;384215;-67
2021/03/16 05:47:49;;;;;;;;;48.80;34.30;;;;;5.29;70.87;99710.81;469777;116;388394;-67
2021/03/16 05:49:11;;;;;;;;;30.40;26.10;;;;;5.32;70.68;99713.23;469894;116;382224;-68